Time;durP1;ratioP1;P1;durP2;ratioP2;P2;SDS_P1;SDS_P2;PMS_P1;PMS_P2;Temp;Humidity;BMP_temperature;BMP_pressure;BME280_temperature;BME280_humidity;BME280_pressure;Samples;Min_cycle;Max_cycle;Signal;HPM_P1;HPM_P2
2022/09/04 00:02:16;;;;;;;13.05;9.02;;;;;;;17.00;81.92;99875.31;5030616;28;20041;-71
2022/09/04 00:04:57;;;;;;;12.70;8.65;;;;;;;16.98;82.12;99872.06;5030925;28;20036;-70
2022/09/04 00:07:53;;;;;;;13.02;7.20;;;;;;;17.00;82.16;99864.28;5027936;28;20025;-70
2022/09/04 00:10:28;;;;;;;15.32;8.75;;;;;;;17.07;82.04;99872.91;5024809;28;20029;-71
2022/09/04 00:13:32;;;;;;;14.25;7.82;;;;;;;17.14;81.82;99869.63;5033734;28;20045;-71
2022/09/04 00:16:24;;;;;;;11.82;7.53;;;;;;;17.15;81.41;99874.84;5014011;28;20475;-70
2022/09/04 00:19:02;;;;;;;14.52;7.53;;;;;;;17.10;82.12;99869.50;5034748;28;20045;-70
2022/09/04 00:21:41;;;;;;;13.82;7.60;;;;;;;17.12;82.07;99883.78;5013329;28;20100;-70
2022/09/04 00:24:09;;;;;;;11.90;7.80;;;;;;;17.11;82.24;99871.09;5031664;28;20168;-71
2022/09/04 00:26:37;;;;;;;16.15;8.40;;;;;;;17.09;82.74;99876.94;5032149;28;20029;-70
2022/09/04 00:29:26;;;;;;;11.20;7.97;;;;;;;17.04;82.80;99870.75;5013887;28;20026;-71
2022/09/04 00:31:57;;;;;;;11.40;7.10;;;;;;;16.99;82.88;99868.97;5023483;28;20099;-69
2022/09/04 00:34:46;;;;;;;14.10;8.05;;;;;;;17.01;83.21;99872.25;5015038;28;20033;-70
2022/09/04 00:37:17;;;;;;;16.55;7.30;;;;;;;17.06;83.37;99874.84;5018354;28;20029;-69
2022/09/04 00:39:49;;;;;;;10.23;6.78;;;;;;;17.06;83.46;99866.53;5029967;28;20125;-71
2022/09/04 00:42:35;;;;;;;12.35;6.00;;;;;;;17.12;83.23;99878.25;5020445;28;20045;-70
2022/09/04 00:45:35;;;;;;;10.60;6.63;;;;;;;17.15;83.24;99874.03;5016470;28;20036;-73
2022/09/04 00:48:38;;;;;;;14.35;6.82;;;;;;;17.14;83.28;99886.22;5041225;28;20025;-73
2022/09/04 00:51:42;;;;;;;13.30;6.97;;;;;;;17.12;83.25;99882.97;5047190;28;20068;-73
2022/09/04 00:54:21;;;;;;;14.23;6.82;;;;;;;17.08;83.52;99891.06;4935992;29;20043;-71
2022/09/04 00:57:12;;;;;;;18.23;7.03;;;;;;;17.04;83.80;99887.31;4930960;29;20141;-69
2022/09/04 01:00:14;;;;;;;12.57;7.90;;;;;;;16.98;84.01;99888.63;4991189;28;20072;-70
2022/09/04 01:02:43;;;;;;;9.57;6.53;;;;;;;16.92;84.58;99891.56;5026566;28;20507;-71
2022/09/04 01:05:36;;;;;;;10.18;5.72;;;;;;;16.86;84.53;99892.78;4997409;28;20025;-72
2022/09/04 01:08:20;;;;;;;12.48;5.90;;;;;;;16.84;84.88;99884.03;5028036;28;20030;-71
2022/09/04 01:10:57;;;;;;;10.05;5.97;;;;;;;16.86;84.75;99892.78;5006080;28;20025;-70
2022/09/04 01:13:40;;;;;;;16.38;5.57;;;;;;;16.84;84.91;99885.97;5027013;28;20415;-71
2022/09/04 01:16:33;;;;;;;8.27;5.40;;;;;;;16.85;84.64;99905.00;5013744;28;20029;-70
2022/09/04 01:19:45;;;;;;;11.80;6.07;;;;;;;16.83;84.92;99893.44;5029816;28;20033;-70
2022/09/04 01:22:29;;;;;;;8.00;5.40;;;;;;;16.78;85.33;99901.88;5001862;28;20503;-70
2022/09/04 01:25:08;;;;;;;8.60;5.03;;;;;;;16.73;85.55;99899.25;5017823;28;20854;-70
2022/09/04 01:28:02;;;;;;;9.20;5.78;;;;;;;16.67;85.80;99890.31;5011887;28;20025;-71
2022/09/04 01:30:37;;;;;;;8.15;5.22;;;;;;;16.64;85.86;99895.66;5008045;28;20061;-70
2022/09/04 01:33:53;;;;;;;8.15;4.88;;;;;;;16.57;86.11;99890.59;5014551;28;20430;-70
2022/09/04 01:36:35;;;;;;;10.23;5.00;;;;;;;16.62;86.17;99912.53;4973014;28;20036;-70
2022/09/04 01:39:01;;;;;;;11.15;6.10;;;;;;;16.63;86.32;99899.53;5036027;28;20104;-71
2022/09/04 01:41:43;;;;;;;8.27;4.60;;;;;;;16.63;86.18;99905.06;5011983;28;20064;-70
2022/09/04 01:44:11;;;;;;;7.70;4.57;;;;;;;16.63;85.94;99899.53;5009938;28;20029;-71
2022/09/04 01:47:20;;;;;;;10.30;4.55;;;;;;;16.62;85.66;99898.75;5023581;28;20026;-69
2022/09/04 01:50:19;;;;;;;7.47;4.25;;;;;;;16.65;85.51;99897.31;5020990;28;20038;-71
2022/09/04 01:52:47;;;;;;;9.35;3.33;;;;;;;16.65;84.93;99898.09;5025714;28;20030;-71
2022/09/04 01:55:25;;;;;;;7.00;3.55;;;;;;;16.62;84.73;99887.69;5000075;28;20033;-72
2022/09/04 01:58:01;;;;;;;6.65;3.65;;;;;;;16.65;84.19;99892.59;5014268;28;20026;-71
2022/09/04 02:00:32;;;;;;;7.18;3.30;;;;;;;16.63;83.80;99889.34;5019445;28;20039;-72
2022/09/04 02:03:22;;;;;;;8.23;2.67;;;;;;;16.64;82.88;99890.16;5014773;28;20017;-70
2022/09/04 02:06:12;;;;;;;5.80;2.25;;;;;;;16.70;81.62;99894.38;4962818;28;20046;-71
2022/09/04 02:09:03;;;;;;;3.92;2.10;;;;;;;16.71;80.89;99890.50;5032774;28;20028;-71
2022/09/04 02:11:30;;;;;;;3.92;1.77;;;;;;;16.72;80.49;99890.16;4997897;28;20111;-71
2022/09/04 02:14:17;;;;;;;9.38;2.20;;;;;;;16.75;80.06;99885.97;5033152;28;20077;-70
2022/09/04 02:17:03;;;;;;;6.00;2.08;;;;;;;16.77;79.23;99867.13;5031388;28;20025;-71
2022/09/04 02:19:47;;;;;;;4.13;1.58;;;;;;;16.73;79.77;99871.66;5013355;28;20059;-72
2022/09/04 02:22:30;;;;;;;10.00;1.88;;;;;;;16.76;79.29;99876.53;5015261;28;20017;-72
2022/09/04 02:25:16;;;;;;;4.05;1.60;;;;;;;16.77;79.25;99872.63;5032654;28;20044;-73
2022/09/04 02:27:53;;;;;;;6.55;1.90;;;;;;;16.75;78.95;99880.44;5033322;28;20100;-72
2022/09/04 02:30:19;;;;;;;6.80;1.80;;;;;;;16.77;79.05;99880.91;5027472;28;20101;-70
2022/09/04 02:33:06;;;;;;;5.78;1.77;;;;;;;16.75;79.12;99881.25;5008881;28;20024;-71
2022/09/04 02:35:45;;;;;;;5.65;1.63;;;;;;;16.73;79.15;99877.16;5020666;28;20037;-72
2022/09/04 02:38:23;;;;;;;4.47;1.50;;;;;;;16.76;78.91;99873.75;5007145;28;20067;-74
2022/09/04 02:40:57;;;;;;;5.28;1.33;;;;;;;16.79;78.79;99886.91;5032956;28;20034;-73
2022/09/04 02:43:38;;;;;;;5.82;1.55;;;;;;;16.81;78.52;99892.94;5022402;28;20480;-73
2022/09/04 02:46:22;;;;;;;2.20;1.50;;;;;;;16.83;78.60;99896.19;5029204;28;20032;-74
2022/09/04 02:48:56;;;;;;;9.68;1.90;;;;;;;16.86;78.44;99890.03;5021904;28;20025;-73
2022/09/04 02:51:22;;;;;;;;;;;;;;;16.89;78.19;99891.38;5030173;28;20840;-73
2022/09/04 02:54:01;;;;;;;6.80;1.90;;;;;;;16.92;78.13;99891.56;5035604;28;19921;-73
2022/09/04 02:56:33;;;;;;;3.35;1.65;;;;;;;16.99;77.98;99893.03;5041291;28;20760;-72
2022/09/04 02:59:17;;;;;;;5.32;1.73;;;;;;;17.02;77.86;99903.41;5043094;28;20105;-73
2022/09/04 03:02:02;;;;;;;2.50;0.90;;;;;;;17.04;77.75;99898.38;5021411;28;20021;-72
2022/09/04 03:04:40;;;;;;;3.00;1.25;;;;;;;17.07;77.56;99886.72;5035624;28;20457;-72
2022/09/04 03:07:12;;;;;;;3.60;1.17;;;;;;;17.09;77.48;99889.94;5043003;28;20029;-73
2022/09/04 03:09:51;;;;;;;5.50;1.27;;;;;;;17.09;77.32;99884.44;5023706;28;20031;-73
2022/09/04 03:12:36;;;;;;;5.07;1.17;;;;;;;17.14;77.28;99894.50;5032486;28;20040;-73
2022/09/04 03:15:19;;;;;;;3.90;1.20;;;;;;;17.15;77.30;99888.66;5046118;28;20047;-73
2022/09/04 03:17:51;;;;;;;11.07;1.88;;;;;;;17.17;77.23;99902.97;5035015;28;20026;-75
2022/09/04 03:20:24;;;;;;;6.80;1.40;;;;;;;17.16;77.12;99901.34;5040219;28;20096;-72
2022/09/04 03:23:01;;;;;;;5.88;1.30;;;;;;;17.16;77.27;99901.34;5031446;28;20030;-72
2022/09/04 03:25:46;;;;;;;8.02;1.50;;;;;;;17.13;77.33;99896.47;5037612;28;20475;-72
2022/09/04 03:28:24;;;;;;;;;;;;;;;17.12;77.34;99905.06;5038653;28;20033;-71
2022/09/04 03:30:54;;;;;;;7.40;1.58;;;;;;;17.09;77.57;99901.00;5046955;28;19948;-72
2022/09/04 03:33:31;;;;;;;4.40;1.30;;;;;;;17.07;77.49;99908.81;5042068;28;20108;-73
2022/09/04 03:36:08;;;;;;;3.45;1.35;;;;;;;17.08;77.56;99907.66;5038321;28;20041;-72
2022/09/04 03:39:12;;;;;;;4.70;1.50;;;;;;;17.11;77.77;99904.25;5037132;28;20143;-74
2022/09/04 03:42:05;;;;;;;5.05;1.25;;;;;;;17.10;77.60;99902.63;5031624;28;20037;-73
2022/09/04 03:45:07;;;;;;;6.93;1.50;;;;;;;17.08;77.75;99899.38;5076702;22;20503;-69
2022/09/04 03:47:39;;;;;;;8.77;1.48;;;;;;;17.03;78.26;99896.78;5018157;28;20040;-72
2022/09/04 03:50:41;;;;;;;6.53;1.25;;;;;;;17.06;78.07;99901.66;5013771;28;20109;-73
2022/09/04 03:53:33;;;;;;;4.60;1.30;;;;;;;17.12;77.89;99900.34;5014174;28;20392;-73
2022/09/04 03:56:24;;;;;;;4.10;1.45;;;;;;;17.14;78.04;99903.59;5016158;28;20045;-72
2022/09/04 03:59:07;;;;;;;6.80;1.30;;;;;;;17.17;78.06;99902.97;5005231;28;20101;-74
2022/09/04 04:02:05;;;;;;;8.57;2.58;;;;;;;17.20;77.97;99902.31;5018850;28;20036;-73
2022/09/04 04:04:36;;;;;;;5.07;1.42;;;;;;;17.24;78.32;99913.53;5015457;28;20125;-72
2022/09/04 04:07:08;;;;;;;7.38;1.50;;;;;;;17.24;78.30;99906.06;5009215;28;20037;-73
2022/09/04 04:10:12;;;;;;;6.00;1.20;;;;;;;17.27;78.53;99891.59;5015205;28;20474;-73
2022/09/04 04:12:43;;;;;;;8.43;1.50;;;;;;;17.30;78.48;99895.66;5016118;28;20036;-73
2022/09/04 04:15:43;;;;;;;3.45;1.30;;;;;;;17.26;78.49;99894.69;5005876;28;20026;-73
2022/09/04 04:18:20;;;;;;;8.68;1.55;;;;;;;17.20;78.63;99885.75;5014485;28;20022;-73
2022/09/04 04:21:05;;;;;;;7.32;1.30;;;;;;;17.14;78.91;99897.25;5004106;28;20015;-73
2022/09/04 04:23:39;;;;;;;6.10;1.63;;;;;;;17.07;79.37;99882.00;5013833;28;20472;-73
2022/09/04 04:26:13;;;;;;;10.38;1.42;;;;;;;17.03;79.57;99882.97;5018496;28;20018;-73
2022/09/04 04:28:58;;;;;;;4.90;2.00;;;;;;;16.98;79.90;99888.63;5008614;28;20100;-73
2022/09/04 04:32:03;;;;;;;8.35;1.60;;;;;;;16.96;80.16;99899.19;5010485;28;20022;-73
2022/09/04 04:34:39;;;;;;;12.13;1.90;;;;;;;16.94;80.51;99905.03;5013032;28;20069;-73
2022/09/04 04:37:12;;;;;;;6.65;1.40;;;;;;;16.95;80.43;99903.09;5016018;28;20061;-73
2022/09/04 04:39:52;;;;;;;5.70;1.67;;;;;;;16.93;80.38;99908.94;5016578;28;20022;-73
2022/09/04 04:42:21;;;;;;;9.10;2.03;;;;;;;16.93;80.42;99901.44;5004167;28;20026;-75
2022/09/04 04:48:26;;;;;;;6.07;2.17;;;;;;;16.90;80.77;99904.84;5008849;28;20110;-74
2022/09/04 04:51:32;;;;;;;5.45;1.38;;;;;;;16.86;80.93;99901.06;5004254;28;20050;-74
2022/09/04 04:54:16;;;;;;;7.28;1.52;;;;;;;16.86;81.06;99903.84;5013627;28;20033;-73
2022/09/04 04:57:17;;;;;;;7.50;1.60;;;;;;;16.98;80.75;99907.97;5017596;28;20100;-71
2022/09/04 05:00:23;;;;;;;6.65;1.65;;;;;;;17.00;80.48;99905.72;5007688;28;20109;-74
2022/09/04 05:03:08;;;;;;;3.72;1.20;;;;;;;17.04;80.52;99912.19;4995161;28;20118;-74
2022/09/04 05:05:42;;;;;;;4.90;1.48;;;;;;;17.06;80.55;99915.47;5028166;28;20093;-73
2022/09/04 05:08:36;;;;;;;7.60;1.27;;;;;;;17.05;80.68;99916.59;5023830;28;20053;-74
2022/09/04 05:11:41;;;;;;;12.83;1.60;;;;;;;17.06;80.75;99919.03;5010683;28;20026;-73
2022/09/04 05:14:16;;;;;;;9.32;1.52;;;;;;;17.07;81.06;99915.13;5022141;28;20484;-75
2022/09/04 05:17:00;;;;;;;7.45;1.55;;;;;;;17.09;80.97;99928.63;5004020;28;20526;-71
2022/09/04 05:19:44;;;;;;;6.40;1.55;;;;;;;17.12;80.79;99927.97;5013063;28;20081;-72
2022/09/04 05:22:43;;;;;;;6.47;1.43;;;;;;;17.20;80.70;99918.91;5003739;28;20475;-71
2022/09/04 05:25:11;;;;;;;9.13;1.77;;;;;;;17.23;80.50;99937.59;5006999;28;20267;-72
2022/09/04 05:27:45;;;;;;;5.13;1.63;;;;;;;17.22;80.71;99927.66;5014418;28;20087;-70
2022/09/04 05:30:17;;;;;;;;;;;;;;;17.21;80.93;99920.50;5009989;28;20025;-71
2022/09/04 05:32:58;;;;;;;7.32;1.50;;;;;;;17.21;80.73;99920.50;5027777;28;20610;-72
2022/09/04 05:35:58;;;;;;;7.35;1.95;;;;;;;17.23;81.17;99929.31;5008175;28;20045;-71
2022/09/04 05:38:39;;;;;;;9.82;1.88;;;;;;;17.21;81.08;99914.97;5004064;28;20038;-70
2022/09/04 05:41:10;;;;;;;3.70;1.30;;;;;;;17.22;81.20;99911.09;5014715;28;20018;-72
2022/09/04 05:43:57;;;;;;;6.22;1.70;;;;;;;17.23;81.34;99915.50;4995420;28;20059;-72
2022/09/04 05:46:43;;;;;;;10.90;2.25;;;;;;;17.24;81.53;99936.47;5004491;28;20030;-71
2022/09/04 05:49:15;;;;;;;11.90;2.28;;;;;;;17.26;81.48;99923.13;4999759;28;20026;-70
2022/09/04 05:51:44;;;;;;;11.07;1.98;;;;;;;17.30;81.65;99939.06;5012337;28;20069;-71
2022/09/04 05:54:24;;;;;;;8.98;1.80;;;;;;;17.31;81.52;99938.72;4997037;28;20026;-70
2022/09/04 05:57:29;;;;;;;7.68;1.40;;;;;;;17.34;81.63;99940.03;5012458;28;20026;-71
2022/09/04 06:00:04;;;;;;;6.57;1.70;;;;;;;17.42;81.67;99959.41;5029849;28;20034;-71
2022/09/04 06:02:51;;;;;;;8.30;1.70;;;;;;;17.46;81.36;99951.25;5012864;28;20379;-73
2022/09/04 06:05:35;;;;;;;12.52;1.90;;;;;;;17.50;81.33;99949.47;4995477;28;20463;-71
2022/09/04 06:08:23;;;;;;;4.53;1.65;;;;;;;17.52;81.09;99958.28;5007213;28;20057;-71
2022/09/04 06:11:08;;;;;;;7.05;1.83;;;;;;;17.58;81.03;99964.44;5012744;28;20065;-71
2022/09/04 06:13:49;;;;;;;8.68;2.05;;;;;;;17.59;80.78;99961.34;5001738;28;20084;-69
2022/09/04 06:16:17;;;;;;;12.07;2.13;;;;;;;17.62;80.64;99962.66;5011914;28;20037;-70
2022/09/04 06:18:55;;;;;;;4.55;1.50;;;;;;;17.62;80.56;99971.78;5010672;28;20025;-71
2022/09/04 06:22:00;;;;;;;11.73;2.47;;;;;;;17.67;80.36;99969.97;5007026;28;20015;-71
2022/09/04 06:24:41;;;;;;;8.45;2.17;;;;;;;17.72;80.13;99981.69;5000693;28;20026;-70
2022/09/04 06:27:44;;;;;;;7.22;1.73;;;;;;;17.76;79.86;99995.69;5023275;28;20049;-75
2022/09/04 06:30:11;;;;;;;10.05;1.70;;;;;;;17.77;79.77;99986.22;5006171;28;20034;-76
2022/09/04 06:32:43;;;;;;;7.10;1.98;;;;;;;17.81;79.50;99995.50;5006961;28;20049;-76
2022/09/04 06:35:40;;;;;;;9.48;2.05;;;;;;;17.87;79.35;99983.16;5006164;28;20038;-75
2022/09/04 06:38:37;;;;;;;7.25;1.77;;;;;;;17.91;79.18;99975.84;5009013;28;20041;-72
2022/09/04 06:41:18;;;;;;;8.35;1.70;;;;;;;17.96;78.96;99978.47;5003056;28;20038;-72
2022/09/04 06:44:21;;;;;;;10.38;2.83;;;;;;;18.05;78.56;99972.13;4998739;28;20149;-73
2022/09/04 06:47:15;;;;;;;7.25;2.15;;;;;;;18.10;78.42;99977.47;4997284;28;20500;-70
2022/09/04 06:50:00;;;;;;;18.85;2.10;;;;;;;18.12;78.16;99987.06;5004805;28;20024;-72
2022/09/04 06:52:37;;;;;;;;;;;;;;;18.16;78.23;99984.44;5005632;28;20066;-71
2022/09/04 06:55:24;;;;;;;12.20;2.15;;;;;;;18.12;78.10;99991.78;5001490;28;19909;-70
2022/09/04 06:58:17;;;;;;;12.77;2.03;;;;;;;18.05;78.42;99981.22;5001381;28;20408;-70
2022/09/04 07:00:52;;;;;;;11.45;2.22;;;;;;;18.02;78.90;99992.13;5005572;28;20052;-71
2022/09/04 07:03:42;;;;;;;7.47;1.60;;;;;;;18.02;78.88;99983.81;5000649;28;20022;-70
2022/09/04 07:06:10;;;;;;;10.70;2.13;;;;;;;18.05;78.78;99997.03;5009301;28;20030;-70
2022/09/04 07:08:52;;;;;;;12.05;2.22;;;;;;;18.05;78.58;100008.09;5002294;28;20037;-70
2022/09/04 07:11:39;;;;;;;11.75;1.95;;;;;;;18.04;78.74;100000.91;5019939;28;20355;-70
2022/09/04 07:14:26;;;;;;;10.93;2.55;;;;;;;18.08;78.69;100005.47;5010533;28;20101;-71
2022/09/04 07:17:10;;;;;;;10.80;1.75;;;;;;;18.05;78.67;100008.09;5010949;28;20037;-76
2022/09/04 07:19:57;;;;;;;13.23;1.88;;;;;;;18.03;78.98;100015.88;5013220;28;20037;-74
2022/09/04 07:22:47;;;;;;;6.75;1.77;;;;;;;18.03;78.95;100022.22;5010966;28;20498;-70
2022/09/04 07:25:31;;;;;;;9.00;2.17;;;;;;;18.05;78.89;100016.38;4991199;28;20038;-70
2022/09/04 07:28:11;;;;;;;9.02;1.88;;;;;;;18.06;78.90;100034.59;5007797;28;20117;-73
2022/09/04 07:30:48;;;;;;;7.78;1.88;;;;;;;18.04;79.15;100029.38;4995576;28;20034;-70
2022/09/04 07:33:26;;;;;;;4.63;1.52;;;;;;;18.03;79.55;100038.00;5004118;28;20053;-70
2022/09/04 07:36:06;;;;;;;12.00;2.33;;;;;;;18.05;79.61;100044.06;4997675;28;20026;-71
2022/09/04 07:38:51;;;;;;;11.88;3.13;;;;;;;18.01;79.63;100049.41;5002094;28;20030;-72
2022/09/04 07:41:30;;;;;;;12.18;2.40;;;;;;;17.90;80.89;100054.47;5008665;28;20061;-70
2022/09/04 07:44:17;;;;;;;9.35;1.90;;;;;;;17.89;81.36;100049.22;5005595;28;20496;-71
2022/09/04 07:47:12;;;;;;;8.27;1.50;;;;;;;17.81;81.49;100053.59;5009498;28;20481;-72
2022/09/04 07:49:48;;;;;;;6.05;1.67;;;;;;;17.79;82.39;100089.88;5002634;28;20037;-70
2022/09/04 07:52:31;;;;;;;8.07;1.85;;;;;;;17.76;82.44;100067.59;5024597;28;20040;-71
2022/09/04 07:55:34;;;;;;;10.82;2.60;;;;;;;17.77;82.32;100071.97;5003201;28;20361;-72
2022/09/04 07:58:21;;;;;;;6.68;1.63;;;;;;;17.78;82.85;100073.59;4995769;28;21244;-70
2022/09/04 08:01:11;;;;;;;7.60;1.83;;;;;;;17.81;82.94;100070.19;5005272;28;20049;-70
2022/09/04 08:03:52;;;;;;;11.30;2.60;;;;;;;17.82;82.62;100079.31;5000049;28;20337;-72
2022/09/04 08:06:32;;;;;;;10.40;2.05;;;;;;;17.78;82.92;100079.97;5009132;28;20026;-74
2022/09/04 08:09:13;;;;;;;12.65;1.90;;;;;;;17.83;82.91;100078.16;5004846;28;20029;-75
2022/09/04 08:11:53;;;;;;;8.20;1.83;;;;;;;17.84;82.35;100077.81;5007923;28;20061;-73
2022/09/04 08:14:31;;;;;;;12.88;2.40;;;;;;;17.95;82.58;100081.94;5006556;28;20026;-74
2022/09/04 08:17:41;;;;;;;11.10;1.63;;;;;;;18.10;82.15;100090.91;5012227;28;20022;-75
2022/09/04 08:20:38;;;;;;;10.98;1.83;;;;;;;18.37;81.38;100088.94;5005846;28;20022;-75
2022/09/04 08:23:12;;;;;;;7.88;1.92;;;;;;;18.54;80.06;100091.69;5005550;28;20022;-71
2022/09/04 08:26:15;;;;;;;6.40;1.38;;;;;;;18.64;79.21;100107.97;5011252;28;20121;-71
2022/09/04 08:28:59;;;;;;;9.73;2.13;;;;;;;18.82;78.73;100102.38;5004138;28;20746;-71
2022/09/04 08:31:30;;;;;;;7.28;1.80;;;;;;;18.93;77.52;100098.16;5005017;28;20048;-70
2022/09/04 08:34:26;;;;;;;9.35;1.90;;;;;;;19.16;77.06;100122.88;5006473;28;20108;-70
2022/09/04 08:37:13;;;;;;;12.52;2.10;;;;;;;19.11;76.54;100114.72;5020768;28;20034;-70
2022/09/04 08:39:47;;;;;;;6.32;1.50;;;;;;;19.16;77.06;100106.25;5012513;28;20523;-71
2022/09/04 08:42:38;;;;;;;14.05;2.67;;;;;;;19.26;75.77;100111.44;5016005;28;20026;-70
2022/09/04 08:45:22;;;;;;;9.65;1.67;;;;;;;19.35;75.42;100114.16;5022704;28;20484;-71
2022/09/04 08:48:19;;;;;;;11.38;2.05;;;;;;;19.55;74.92;100107.03;5007395;28;20081;-71
2022/09/04 08:51:14;;;;;;;15.95;2.90;;;;;;;19.85;73.21;100121.75;4969995;28;20042;-72
2022/09/04 08:54:01;;;;;;;12.05;2.08;;;;;;;20.02;72.53;100118.03;5002648;28;20057;-71
2022/09/04 08:56:41;;;;;;;8.85;1.75;;;;;;;20.21;71.91;100130.66;5001574;28;20038;-71
2022/09/04 08:59:23;;;;;;;4.90;1.95;;;;;;;20.30;71.15;100120.28;5001783;28;20010;-71
2022/09/04 09:02:17;;;;;;;10.55;2.13;;;;;;;20.51;69.98;100131.38;4999605;28;20054;-70
2022/09/04 09:04:54;;;;;;;6.60;2.08;;;;;;;20.64;69.51;100135.00;5007781;28;20083;-71
2022/09/04 09:07:47;;;;;;;10.63;1.95;;;;;;;20.68;69.19;100147.09;5024724;28;20083;-70
2022/09/04 09:10:25;;;;;;;11.20;2.13;;;;;;;20.30;69.96;100169.47;5000192;28;20021;-70
2022/09/04 09:12:53;;;;;;;12.00;2.08;;;;;;;19.93;71.22;100142.28;5006373;28;20083;-70
2022/09/04 09:15:39;;;;;;;9.95;1.50;;;;;;;19.82;71.97;100154.91;5006828;28;20029;-70
2022/09/04 09:18:20;;;;;;;15.98;2.00;;;;;;;19.93;71.74;100145.06;5000785;28;20029;-70
2022/09/04 09:20:55;;;;;;;9.55;1.60;;;;;;;20.03;71.51;100155.75;5012750;28;20030;-70
2022/09/04 09:23:51;;;;;;;9.30;2.00;;;;;;;20.34;70.67;100150.94;5003486;28;20038;-71
2022/09/04 09:26:29;;;;;;;9.57;1.98;;;;;;;20.59;69.05;100154.69;4997310;28;20698;-70
2022/09/04 09:29:01;;;;;;;8.75;2.00;;;;;;;20.68;69.15;100161.00;5002384;28;20032;-70
2022/09/04 09:31:45;;;;;;;13.68;1.90;;;;;;;20.80;68.41;100163.00;5009432;28;20038;-71
2022/09/04 09:34:10;;;;;;;12.38;2.28;;;;;;;20.92;67.83;100165.00;4996351;28;20029;-71
2022/09/04 09:36:43;;;;;;;7.38;2.10;;;;;;;21.03;67.48;100163.44;5016893;28;20026;-71
2022/09/04 09:39:16;;;;;;;12.65;1.70;;;;;;;20.85;67.67;100173.09;5005606;28;20026;-71
2022/09/04 09:42:30;;;;;;;9.07;2.20;;;;;;;20.80;67.75;100173.31;5010020;28;20342;-69
2022/09/04 09:45:10;;;;;;;11.82;2.55;;;;;;;20.98;67.64;100160.84;5005475;28;20064;-71
2022/09/04 09:47:54;;;;;;;6.30;1.38;;;;;;;21.38;66.64;100174.16;5000886;28;20100;-68
2022/09/04 09:50:35;;;;;;;10.65;2.20;;;;;;;21.58;65.82;100177.22;5009465;28;20468;-70
2022/09/04 09:53:12;;;;;;;12.20;2.35;;;;;;;21.72;65.52;100183.25;5008856;28;20048;-71
2022/09/04 09:56:12;;;;;;;10.75;2.53;;;;;;;21.87;64.20;100183.72;5001369;28;20065;-71
2022/09/04 09:59:08;;;;;;;9.65;2.30;;;;;;;21.93;64.06;100183.16;5015564;28;20018;-70
2022/09/04 10:02:00;;;;;;;9.13;1.92;;;;;;;22.65;62.88;100198.47;4994814;28;20026;-71
2022/09/04 10:04:44;;;;;;;6.30;2.05;;;;;;;22.76;60.91;100196.78;5007521;28;20461;-69
2022/09/04 10:07:28;;;;;;;14.50;2.40;;;;;;;22.69;60.62;100202.16;5025374;28;20025;-71
2022/09/04 10:10:18;;;;;;;12.45;2.28;;;;;;;22.32;62.81;100205.03;5002777;28;20061;-71
2022/09/04 10:13:16;;;;;;;8.63;1.67;;;;;;;21.93;62.83;100210.16;5006671;28;20548;-69
2022/09/04 10:15:51;;;;;;;12.25;2.35;;;;;;;21.47;65.10;100198.28;5003131;28;20045;-70
2022/09/04 10:18:38;;;;;;;12.35;1.83;;;;;;;21.31;66.14;100218.41;5005649;28;20030;-70
2022/09/04 10:21:26;;;;;;;11.50;1.88;;;;;;;21.51;65.35;100204.78;4995814;28;20040;-72
2022/09/04 10:24:16;;;;;;;10.25;1.60;;;;;;;21.68;64.80;100218.50;5012144;28;20132;-71
2022/09/04 10:27:13;;;;;;;15.32;2.72;;;;;;;21.60;65.36;100197.97;5003300;28;20111;-71
2022/09/04 10:29:51;;;;;;;9.82;1.90;;;;;;;21.85;63.88;100199.97;5005761;28;20037;-70
2022/09/04 10:32:47;;;;;;;9.02;1.92;;;;;;;21.85;64.67;100205.53;5027573;28;20726;-70
2022/09/04 10:35:27;;;;;;;12.50;2.28;;;;;;;22.11;63.80;100199.59;5003319;28;20038;-70
2022/09/04 10:38:05;;;;;;;11.80;2.00;;;;;;;22.31;63.71;100197.81;5020319;28;20046;-70
2022/09/04 10:41:09;;;;;;;12.35;2.03;;;;;;;22.27;62.52;100186.56;5010227;28;20093;-71
2022/09/04 10:43:48;;;;;;;6.55;1.67;;;;;;;22.21;63.15;100206.66;5005326;28;20154;-71
2022/09/04 10:46:46;;;;;;;6.32;1.83;;;;;;;22.17;63.11;100211.31;5009629;28;20022;-72
2022/09/04 10:49:48;;;;;;;9.07;1.55;;;;;;;22.21;63.42;100203.88;5002515;28;20614;-73
2022/09/04 10:52:40;;;;;;;4.72;1.63;;;;;;;22.05;63.87;100201.81;5004463;28;20538;-72
2022/09/04 10:55:44;;;;;;;8.23;2.10;;;;;;;22.37;62.63;100215.13;5014148;28;20029;-72
2022/09/04 10:58:39;;;;;;;7.55;2.05;;;;;;;23.50;61.65;100207.56;5005569;28;20062;-72
2022/09/04 11:01:26;;;;;;;13.75;2.25;;;;;;;25.47;55.59;100212.31;5014892;28;20025;-71
2022/09/04 11:04:12;;;;;;;6.57;1.83;;;;;;;25.64;53.68;100218.59;5025519;28;20501;-71
2022/09/04 11:06:56;;;;;;;6.80;1.88;;;;;;;25.02;54.89;100211.03;5011252;28;20026;-70
2022/09/04 11:09:41;;;;;;;8.02;1.92;;;;;;;24.52;56.09;100217.19;5009672;28;20664;-70
2022/09/04 11:12:35;;;;;;;10.55;2.65;;;;;;;23.75;58.09;100212.19;5017984;28;20108;-71
2022/09/04 11:15:26;;;;;;;11.27;1.75;;;;;;;23.91;58.03;100218.59;5000796;28;20044;-70
2022/09/04 11:18:13;;;;;;;12.30;2.15;;;;;;;24.13;56.95;100217.13;5013975;28;20425;-75
2022/09/04 11:20:51;;;;;;;11.10;2.05;;;;;;;24.07;56.71;100212.97;5005366;28;20141;-72
2022/09/04 11:23:40;;;;;;;7.68;2.17;;;;;;;23.77;57.16;100221.00;5010493;28;20077;-70
2022/09/04 11:26:08;;;;;;;7.63;2.15;;;;;;;23.25;58.78;100228.44;5002458;28;20022;-71
2022/09/04 11:28:46;;;;;;;10.60;1.80;;;;;;;22.68;60.78;100217.28;5014855;28;20026;-73
2022/09/04 11:31:41;;;;;;;13.25;2.33;;;;;;;22.41;61.58;100222.44;5015816;28;20029;-72
2022/09/04 11:34:12;;;;;;;10.93;2.35;;;;;;;22.34;62.55;100222.22;5004996;28;20024;-72
2022/09/04 11:37:09;;;;;;;13.32;2.67;;;;;;;22.52;61.86;100227.53;5011131;28;20038;-71
2022/09/04 11:39:53;;;;;;;13.63;2.35;;;;;;;22.58;61.02;100224.13;5012644;28;20034;-70
2022/09/04 11:42:41;;;;;;;13.35;2.40;;;;;;;22.47;60.94;100226.63;5020342;28;20117;-70
2022/09/04 11:45:21;;;;;;;9.73;2.40;;;;;;;22.43;60.73;100216.53;5010578;28;20038;-69
2022/09/04 11:48:05;;;;;;;8.93;2.00;;;;;;;22.60;60.77;100221.78;5017083;28;20383;-71
2022/09/04 11:51:16;;;;;;;10.18;1.80;;;;;;;22.76;60.09;100229.44;5001211;28;20034;-71
2022/09/04 11:54:14;;;;;;;7.57;2.00;;;;;;;22.94;59.08;100229.94;5003161;28;20159;-69
2022/09/04 11:56:53;;;;;;;8.77;1.80;;;;;;;23.03;60.25;100225.03;5004873;28;20472;-71
2022/09/04 11:59:27;;;;;;;10.25;2.00;;;;;;;23.50;57.84;100245.84;5009572;28;20113;-69
2022/09/04 12:02:17;;;;;;;10.70;2.67;;;;;;;23.78;56.98;100245.75;5002790;28;20023;-70
2022/09/04 12:05:09;;;;;;;9.60;2.05;;;;;;;23.84;57.66;100238.72;5006102;28;20695;-69
2022/09/04 12:07:46;;;;;;;11.70;2.83;;;;;;;24.24;56.09;100234.13;5004415;28;20026;-69
2022/09/04 12:10:25;;;;;;;10.52;2.10;;;;;;;24.27;56.25;100244.59;5007051;28;20054;-69
2022/09/04 12:13:13;;;;;;;9.23;1.67;;;;;;;23.69;57.27;100250.72;5005371;28;20025;-68
2022/09/04 12:15:54;;;;;;;17.98;2.20;;;;;;;23.22;58.69;100237.50;5009086;28;20373;-69
2022/09/04 12:18:50;;;;;;;12.38;2.30;;;;;;;22.90;60.60;100240.19;5008632;28;20049;-69
2022/09/04 12:21:51;;;;;;;6.25;1.92;;;;;;;22.89;61.09;100244.94;4997036;28;20025;-69
2022/09/04 12:24:29;;;;;;;10.15;2.40;;;;;;;22.86;59.67;100253.22;5014542;28;20033;-69
2022/09/04 12:27:06;;;;;;;7.30;1.90;;;;;;;22.44;60.19;100249.59;5011139;28;20030;-69
2022/09/04 12:29:50;;;;;;;7.82;1.65;;;;;;;22.02;62.13;100247.06;5006756;28;20030;-69
2022/09/04 12:32:52;;;;;;;7.70;1.63;;;;;;;21.89;63.13;100253.75;4995697;28;20030;-69
2022/09/04 12:35:33;;;;;;;11.38;2.60;;;;;;;21.95;63.61;100252.38;4999950;28;20026;-69
2022/09/04 12:37:59;;;;;;;13.77;3.10;;;;;;;22.07;63.35;100255.16;5001806;28;20050;-70
2022/09/04 12:40:40;;;;;;;15.52;2.53;;;;;;;22.03;63.00;100268.16;5028446;28;20037;-68
2022/09/04 12:43:20;;;;;;;18.60;3.15;;;;;;;21.87;64.08;100256.09;5013120;28;20013;-69
2022/09/04 12:46:13;;;;;;;11.80;2.30;;;;;;;22.01;64.41;100256.56;5005749;28;20089;-70
2022/09/04 12:48:53;;;;;;;13.55;2.47;;;;;;;22.27;63.16;100270.13;5023509;28;20026;-68
2022/09/04 12:51:23;;;;;;;9.27;1.80;;;;;;;22.41;62.82;100258.63;5005388;28;20113;-68